createdAt,value
2023-02-03T00:00:29.793Z,72.09
2023-02-03T00:01:32.730Z,71.96
2023-02-03T00:02:35.361Z,72.01
2023-02-03T00:03:38.096Z,72.07
2023-02-03T00:04:42.458Z,71.93
2023-02-03T00:05:45.489Z,71.98
2023-02-03T00:06:48.608Z,72.05
2023-02-03T00:07:51.516Z,72.06
2023-02-03T00:09:02.633Z,72.15
2023-02-03T00:10:05.977Z,72.27
2023-02-03T00:11:09.057Z,72.24
2023-02-03T00:12:11.749Z,72.26
2023-02-03T00:13:15.494Z,72.47
2023-02-03T00:14:18.419Z,72.42
2023-02-03T00:15:21.539Z,72.47
2023-02-03T00:16:24.410Z,72.60
2023-02-03T00:17:27.071Z,72.71
2023-02-03T00:18:29.909Z,72.76
2023-02-03T00:19:32.641Z,72.67
2023-02-03T00:20:38.148Z,72.60
2023-02-03T00:21:41.009Z,72.64
2023-02-03T00:22:43.655Z,72.73
2023-02-03T00:23:46.356Z,72.62
2023-02-03T00:24:49.020Z,72.52
2023-02-03T00:25:51.698Z,72.60
2023-02-03T00:26:54.427Z,72.58
2023-02-03T00:27:57.101Z,72.63
2023-02-03T00:29:01.027Z,72.58
2023-02-03T00:30:03.728Z,72.64
2023-02-03T00:31:06.716Z,72.56
2023-02-03T00:32:09.532Z,72.66
2023-02-03T00:33:19.717Z,72.65
2023-02-03T00:34:22.909Z,72.52
2023-02-03T00:35:25.536Z,72.52
2023-02-03T00:36:28.729Z,72.43
2023-02-03T00:37:31.494Z,72.32
2023-02-03T00:38:36.208Z,72.27
2023-02-03T00:39:40.209Z,72.30
2023-02-03T00:40:42.920Z,72.05
2023-02-03T00:41:45.866Z,71.89
2023-02-03T00:42:48.673Z,71.83
2023-02-03T00:43:53.269Z,71.84
2023-02-03T00:44:55.899Z,71.90
2023-02-03T00:45:58.641Z,71.96
2023-02-03T00:47:01.367Z,71.94
2023-02-03T00:48:04.085Z,72.26
2023-02-03T00:49:07.109Z,72.30
2023-02-03T00:50:10.575Z,71.98
2023-02-03T00:51:13.320Z,71.93
2023-02-03T00:52:16.058Z,71.90
2023-02-03T00:53:18.798Z,71.78
2023-02-03T00:54:21.538Z,71.76
2023-02-03T00:55:24.177Z,71.70
2023-02-03T00:56:27.109Z,71.52
2023-02-03T00:57:29.810Z,71.40
2023-02-03T00:58:32.537Z,71.27
2023-02-03T00:59:35.196Z,71.18
2023-02-03T01:00:37.790Z,71.43
2023-02-03T01:01:40.444Z,71.03
2023-02-03T01:02:43.196Z,70.77
2023-02-03T01:03:45.887Z,70.97
2023-02-03T01:04:49.643Z,71.22
2023-02-03T01:05:52.503Z,70.97
2023-02-03T01:06:58.716Z,70.73
2023-02-03T01:08:02.403Z,70.66
2023-02-03T01:09:06.942Z,70.59
2023-02-03T01:10:10.011Z,70.41
2023-02-03T01:11:18.543Z,70.65
2023-02-03T01:12:21.755Z,70.54
2023-02-03T01:13:24.360Z,70.56
2023-02-03T01:14:27.206Z,70.65
2023-02-03T01:15:29.878Z,70.56
2023-02-03T01:16:32.699Z,70.55
2023-02-03T01:17:35.367Z,70.60
2023-02-03T01:18:38.548Z,70.63
2023-02-03T01:19:41.178Z,70.73
2023-02-03T01:20:43.793Z,70.66
2023-02-03T01:21:46.412Z,70.52
2023-02-03T01:22:50.825Z,70.78
2023-02-03T01:23:54.367Z,70.69
2023-02-03T01:24:57.241Z,70.86
2023-02-03T01:26:04.264Z,70.83
2023-02-03T01:27:09.076Z,70.79
2023-02-03T01:28:11.888Z,70.77
2023-02-03T01:29:15.443Z,70.80
2023-02-03T01:30:18.498Z,71.00
2023-02-03T01:31:27.279Z,71.09
2023-02-03T01:32:29.989Z,70.80
2023-02-03T01:33:34.820Z,70.98
2023-02-03T01:34:37.527Z,70.82
2023-02-03T01:35:40.167Z,70.80
2023-02-03T01:36:42.878Z,70.65
2023-02-03T01:37:45.520Z,70.64
2023-02-03T01:38:48.689Z,70.68
2023-02-03T01:39:51.311Z,70.73
2023-02-03T01:40:53.982Z,70.83
2023-02-03T01:42:03.369Z,70.91
2023-02-03T01:43:06.072Z,70.88
2023-02-03T01:44:44.199Z,70.98
2023-02-03T01:45:47.339Z,71.00
2023-02-03T01:46:52.009Z,71.02
2023-02-03T01:47:59.319Z,71.06
2023-02-03T01:49:20.150Z,71.10
2023-02-03T01:50:35.530Z,71.29
2023-02-03T01:51:40.925Z,71.47
2023-02-03T01:52:46.291Z,71.57
2023-02-03T01:53:49.996Z,71.63
2023-02-03T01:54:56.964Z,71.65
2023-02-03T01:56:00.630Z,71.76
2023-02-03T01:57:11.594Z,71.95
2023-02-03T01:58:21.316Z,72.10
2023-02-03T01:59:25.926Z,72.14
2023-02-03T02:00:29.041Z,72.48
2023-02-03T02:01:34.492Z,72.75
2023-02-03T02:02:37.799Z,72.92
2023-02-03T02:03:48.601Z,73.01
2023-02-03T02:04:58.225Z,72.96
2023-02-03T02:06:09.727Z,72.92
2023-02-03T02:07:13.204Z,72.85
2023-02-03T02:08:19.226Z,72.84
2023-02-03T02:09:21.959Z,72.85
2023-02-03T02:10:25.037Z,73.01
2023-02-03T02:11:29.132Z,73.01
2023-02-03T02:12:31.767Z,72.95
2023-02-03T02:13:38.461Z,73.08
2023-02-03T02:14:43.785Z,73.13
2023-02-03T02:15:55.501Z,73.02
2023-02-03T02:17:15.332Z,73.07
2023-02-03T02:18:33.094Z,72.94
2023-02-03T02:19:47.735Z,72.86
2023-02-03T02:20:55.996Z,72.80
2023-02-03T02:22:10.590Z,72.74
2023-02-03T02:23:51.230Z,72.97
2023-02-03T02:25:25.288Z,72.90
2023-02-03T02:26:45.572Z,72.73
2023-02-03T02:28:06.790Z,72.71
2023-02-03T02:29:53.522Z,72.67
2023-02-03T02:31:17.517Z,72.54
2023-02-03T02:32:59.400Z,72.36
2023-02-03T02:34:48.973Z,72.28
2023-02-03T02:36:16.088Z,72.32
2023-02-03T02:37:53.642Z,72.29
2023-02-03T02:39:09.578Z,72.43
2023-02-03T02:40:14.849Z,72.48
2023-02-03T02:41:27.499Z,72.46
2023-02-03T02:42:45.640Z,72.52
2023-02-03T02:44:11.526Z,72.62
2023-02-03T02:45:27.610Z,72.41
2023-02-03T02:47:01.723Z,72.40
2023-02-03T02:48:11.542Z,72.38
2023-02-03T02:49:33.041Z,72.22
2023-02-03T02:50:41.464Z,72.36
2023-02-03T02:51:48.070Z,72.54
2023-02-03T02:52:52.467Z,72.43
2023-02-03T02:53:59.916Z,72.41
2023-02-03T02:55:10.785Z,72.44
2023-02-03T02:56:18.195Z,72.48
2023-02-03T02:57:26.431Z,72.46
2023-02-03T02:58:32.605Z,72.59
2023-02-03T02:59:35.230Z,72.59
2023-02-03T03:00:38.735Z,72.70
2023-02-03T03:01:42.337Z,72.99
2023-02-03T03:02:46.485Z,73.16
2023-02-03T03:03:49.226Z,73.22
2023-02-03T03:04:52.420Z,73.21
2023-02-03T03:06:04.811Z,73.22
2023-02-03T03:07:14.549Z,73.21
2023-02-03T03:08:23.553Z,73.19
2023-02-03T03:09:37.251Z,73.16
2023-02-03T03:10:42.832Z,73.44
2023-02-03T03:11:56.058Z,73.47
2023-02-03T03:13:04.782Z,73.41
2023-02-03T03:14:11.384Z,73.53
2023-02-03T03:15:25.421Z,73.42
2023-02-03T03:16:30.722Z,73.30
2023-02-03T03:17:42.675Z,73.41
2023-02-03T03:18:49.879Z,73.29
2023-02-03T03:19:57.031Z,73.16
2023-02-03T03:21:07.007Z,73.17
2023-02-03T03:22:14.478Z,73.13
2023-02-03T03:23:34.044Z,73.11
2023-02-03T03:24:43.102Z,72.93
2023-02-03T03:25:52.458Z,72.81
2023-02-03T03:27:20.688Z,72.85
2023-02-03T03:28:29.498Z,72.90
2023-02-03T03:29:49.043Z,73.07
2023-02-03T03:30:51.985Z,73.09
2023-02-03T03:31:55.373Z,73.25
2023-02-03T03:33:00.693Z,73.36
2023-02-03T03:34:04.032Z,73.48
2023-02-03T03:35:09.721Z,73.78
2023-02-03T03:36:25.119Z,73.76
2023-02-03T03:37:37.870Z,73.95
2023-02-03T03:38:43.632Z,74.02
2023-02-03T03:39:52.435Z,73.98
2023-02-03T03:41:08.586Z,74.04
2023-02-03T03:42:32.179Z,73.98
2023-02-03T03:43:41.120Z,73.94
2023-02-03T03:44:53.865Z,73.92
2023-02-03T03:46:17.512Z,73.82
2023-02-03T03:47:37.547Z,73.87
2023-02-03T03:48:58.199Z,73.82
2023-02-03T03:50:05.931Z,73.61
2023-02-03T03:51:32.117Z,73.59
2023-02-03T03:52:39.759Z,73.33
2023-02-03T03:53:44.770Z,73.14
2023-02-03T03:54:49.486Z,73.03
2023-02-03T03:55:54.973Z,72.97
2023-02-03T03:57:33.681Z,73.18
2023-02-03T03:58:40.109Z,72.65
2023-02-03T03:59:49.235Z,72.22
2023-02-03T04:00:55.408Z,71.76
2023-02-03T04:01:58.587Z,72.01
2023-02-03T04:03:08.701Z,72.04
2023-02-03T04:04:12.557Z,71.63
2023-02-03T04:05:16.873Z,71.27
2023-02-03T04:06:19.571Z,71.25
2023-02-03T04:07:22.447Z,71.48
2023-02-03T04:08:26.902Z,70.90
2023-02-03T04:09:29.781Z,71.06
2023-02-03T04:10:38.279Z,70.60
2023-02-03T04:12:01.159Z,70.03
2023-02-03T04:13:05.180Z,69.75
2023-02-03T04:14:07.912Z,70.19
2023-02-03T04:15:10.817Z,70.07
2023-02-03T04:16:13.508Z,70.28
2023-02-03T04:17:18.791Z,69.29
2023-02-03T04:18:23.557Z,69.68
2023-02-03T04:19:28.797Z,69.37
2023-02-03T04:20:36.167Z,69.42
2023-02-03T04:21:38.860Z,69.77
2023-02-03T04:22:41.706Z,69.48
2023-02-03T04:23:50.352Z,69.24
2023-02-03T04:24:53.016Z,69.53
2023-02-03T04:25:55.664Z,69.80
2023-02-03T04:26:58.285Z,69.59
2023-02-03T04:28:07.778Z,69.41
2023-02-03T04:29:10.947Z,69.03
2023-02-03T04:30:15.095Z,69.19
2023-02-03T04:31:18.163Z,69.09
2023-02-03T04:32:21.365Z,69.23
2023-02-03T04:33:23.986Z,69.06
2023-02-03T04:34:26.631Z,69.06
2023-02-03T04:35:29.322Z,68.71
2023-02-03T04:36:31.979Z,68.55
2023-02-03T04:37:34.995Z,68.58
2023-02-03T04:38:37.662Z,68.38
2023-02-03T04:39:40.377Z,68.54
2023-02-03T04:40:46.647Z,68.60
2023-02-03T04:41:49.466Z,68.52
2023-02-03T04:42:52.123Z,68.88
2023-02-03T04:43:54.746Z,68.50
2023-02-03T04:44:57.415Z,68.42
2023-02-03T04:46:03.207Z,68.42
2023-02-03T04:47:05.988Z,68.40
2023-02-03T04:48:08.636Z,68.10
2023-02-03T04:49:18.719Z,67.93
2023-02-03T04:50:21.406Z,67.71
2023-02-03T04:51:24.096Z,67.89
2023-02-03T04:52:29.796Z,68.04
2023-02-03T04:53:33.297Z,67.81
2023-02-03T04:54:35.974Z,67.82
2023-02-03T04:55:38.649Z,67.72
2023-02-03T04:56:48.380Z,67.81
2023-02-03T04:57:55.739Z,67.59
2023-02-03T04:58:58.437Z,67.38
2023-02-03T05:00:01.122Z,67.24
2023-02-03T05:01:10.432Z,67.60
2023-02-03T05:02:13.222Z,67.64
2023-02-03T05:03:16.223Z,67.70
2023-02-03T05:04:19.048Z,67.68
2023-02-03T05:05:21.687Z,67.77
2023-02-03T05:06:29.065Z,67.26
2023-02-03T05:07:31.873Z,67.13
2023-02-03T05:08:34.562Z,67.13
2023-02-03T05:09:39.743Z,67.61
2023-02-03T05:10:42.354Z,67.69
2023-02-03T05:11:45.033Z,68.07
2023-02-03T05:12:47.802Z,67.73
2023-02-03T05:13:50.625Z,67.63
2023-02-03T05:14:53.280Z,67.64
2023-02-03T05:15:55.942Z,67.56
2023-02-03T05:16:58.570Z,67.43
2023-02-03T05:18:01.268Z,67.28
2023-02-03T05:19:04.040Z,67.28
2023-02-03T05:20:07.720Z,67.27
2023-02-03T05:21:10.363Z,67.53
2023-02-03T05:22:13.048Z,67.70
2023-02-03T05:23:15.779Z,67.99
2023-02-03T05:24:21.262Z,68.25
2023-02-03T05:25:27.277Z,68.38
2023-02-03T05:26:29.922Z,68.60
2023-02-03T05:27:32.686Z,68.76
2023-02-03T05:28:35.518Z,68.81
2023-02-03T05:29:38.146Z,68.82
2023-02-03T05:30:40.908Z,68.99
2023-02-03T05:31:43.611Z,69.02
2023-02-03T05:32:46.336Z,68.89
2023-02-03T05:33:48.975Z,68.81
2023-02-03T05:34:51.646Z,68.85
2023-02-03T05:35:56.825Z,68.99
2023-02-03T05:36:59.794Z,68.99
2023-02-03T05:38:05.838Z,68.96
2023-02-03T05:39:08.604Z,69.02
2023-02-03T05:40:36.041Z,68.84
2023-02-03T05:41:54.106Z,68.69
2023-02-03T05:42:57.727Z,68.67
2023-02-03T05:44:00.470Z,68.76
2023-02-03T05:45:03.292Z,68.71
2023-02-03T05:46:07.814Z,68.59
2023-02-03T05:47:10.499Z,68.53
2023-02-03T05:48:13.543Z,68.56
2023-02-03T05:49:16.348Z,68.65
2023-02-03T05:50:19.189Z,68.76
2023-02-03T05:51:21.934Z,68.76
2023-02-03T05:52:24.558Z,69.38
2023-02-03T05:53:28.387Z,69.21
2023-02-03T05:54:31.038Z,68.78
2023-02-03T05:55:35.120Z,68.89
2023-02-03T05:56:39.089Z,69.24
2023-02-03T05:57:41.694Z,68.92
2023-02-03T05:58:44.349Z,68.86
2023-02-03T05:59:47.091Z,69.56
2023-02-03T06:00:49.733Z,69.01
2023-02-03T06:01:52.373Z,68.82
2023-02-03T06:02:57.140Z,68.91
2023-02-03T06:04:02.723Z,68.88
2023-02-03T06:05:08.161Z,68.88
2023-02-03T06:06:10.918Z,68.90
2023-02-03T06:07:13.653Z,69.00
2023-02-03T06:08:16.469Z,68.94
2023-02-03T06:09:19.162Z,69.02
2023-02-03T06:10:27.681Z,68.85
2023-02-03T06:11:30.570Z,69.42
2023-02-03T06:12:35.961Z,69.47
2023-02-03T06:13:38.944Z,68.91
2023-02-03T06:14:41.604Z,68.69
2023-02-03T06:15:44.820Z,68.57
2023-02-03T06:16:47.532Z,68.66
2023-02-03T06:17:50.797Z,68.60
2023-02-03T06:18:55.077Z,68.92
2023-02-03T06:19:57.792Z,68.34
2023-02-03T06:21:00.383Z,68.07
2023-02-03T06:22:03.030Z,68.75
2023-02-03T06:23:06.410Z,68.38
2023-02-03T06:24:09.208Z,68.96
2023-02-03T06:25:13.263Z,68.96
2023-02-03T06:26:16.065Z,68.59
2023-02-03T06:27:18.773Z,68.42
2023-02-03T06:28:21.591Z,68.47
2023-02-03T06:29:24.256Z,68.62
2023-02-03T06:30:27.323Z,68.39
2023-02-03T06:31:30.427Z,68.20
2023-02-03T06:32:33.197Z,67.88
2023-02-03T06:33:35.875Z,68.61
2023-02-03T06:34:38.645Z,68.93
2023-02-03T06:35:41.268Z,68.82
2023-02-03T06:36:43.991Z,68.01
2023-02-03T06:37:46.737Z,67.89
2023-02-03T06:38:49.370Z,67.68
2023-02-03T06:39:52.015Z,67.28
2023-02-03T06:40:57.554Z,67.11
2023-02-03T06:42:04.107Z,67.67
2023-02-03T06:43:07.087Z,67.75
2023-02-03T06:44:09.832Z,67.46
2023-02-03T06:45:12.541Z,67.76
2023-02-03T06:46:17.056Z,69.86
2023-02-03T06:47:21.976Z,70.55
2023-02-03T06:48:27.186Z,67.81
2023-02-03T06:49:30.911Z,67.03
2023-02-03T06:50:33.598Z,66.72
2023-02-03T06:51:36.341Z,66.44
2023-02-03T06:52:41.561Z,66.46
2023-02-03T06:53:44.231Z,66.63
2023-02-03T06:54:48.341Z,66.75
2023-02-03T06:55:51.087Z,66.97
2023-02-03T06:56:53.797Z,67.15
2023-02-03T06:57:56.620Z,66.94
2023-02-03T06:59:01.715Z,66.54
2023-02-03T07:00:04.945Z,66.35
2023-02-03T07:01:08.024Z,66.55
2023-02-03T07:02:13.014Z,66.47
2023-02-03T07:03:15.776Z,66.55
2023-02-03T07:04:18.627Z,66.45
2023-02-03T07:05:22.102Z,66.37
2023-02-03T07:06:30.114Z,65.95
2023-02-03T07:07:34.128Z,65.77
2023-02-03T07:08:36.827Z,65.85
2023-02-03T07:09:40.617Z,66.41
2023-02-03T07:10:45.860Z,66.51
2023-02-03T07:11:48.572Z,66.68
2023-02-03T07:12:52.877Z,66.94
2023-02-03T07:13:55.516Z,66.93
2023-02-03T07:14:58.230Z,66.91
2023-02-03T07:16:00.915Z,66.99
2023-02-03T07:17:09.815Z,67.17
2023-02-03T07:18:18.027Z,66.53
2023-02-03T07:19:24.128Z,66.67
2023-02-03T07:20:27.558Z,66.78
2023-02-03T07:21:30.495Z,66.96
2023-02-03T07:22:33.193Z,66.92
2023-02-03T07:23:37.664Z,66.09
2023-02-03T07:24:40.336Z,66.04
2023-02-03T07:25:43.045Z,66.28
2023-02-03T07:26:45.658Z,66.88
2023-02-03T07:27:50.327Z,67.12
2023-02-03T07:28:53.822Z,67.23
2023-02-03T07:29:57.548Z,67.08
2023-02-03T07:31:01.644Z,67.20
2023-02-03T07:32:04.815Z,67.02
2023-02-03T07:33:09.018Z,67.27
2023-02-03T07:34:11.807Z,67.46
2023-02-03T07:35:14.510Z,67.43
2023-02-03T07:36:17.198Z,67.42
2023-02-03T07:37:19.830Z,67.59
2023-02-03T07:38:23.936Z,67.26
2023-02-03T07:39:27.965Z,67.11
2023-02-03T07:40:32.526Z,67.13
2023-02-03T07:41:35.470Z,67.38
2023-02-03T07:42:42.080Z,67.63
2023-02-03T07:43:44.729Z,67.46
2023-02-03T07:44:47.369Z,67.58
2023-02-03T07:45:52.505Z,67.59
2023-02-03T07:46:55.188Z,67.34
2023-02-03T07:47:57.901Z,66.99
2023-02-03T07:49:00.591Z,67.54
2023-02-03T07:50:03.681Z,67.46
2023-02-03T07:51:06.841Z,67.14
2023-02-03T07:52:09.638Z,67.09
2023-02-03T07:53:12.313Z,67.37
2023-02-03T07:54:19.572Z,67.24
2023-02-03T07:55:23.058Z,67.50
2023-02-03T07:56:25.705Z,67.39
2023-02-03T07:57:28.381Z,67.37
2023-02-03T07:58:32.466Z,67.65
2023-02-03T07:59:35.110Z,67.83
2023-02-03T08:00:40.554Z,67.40
2023-02-03T08:01:43.257Z,67.32
2023-02-03T08:02:46.711Z,67.24
2023-02-03T08:03:49.401Z,67.37
2023-02-03T08:04:52.158Z,67.28
2023-02-03T08:05:54.877Z,67.29
2023-02-03T08:06:57.629Z,67.26
2023-02-03T08:08:00.584Z,67.27
2023-02-03T08:09:03.237Z,67.07
2023-02-03T08:10:06.465Z,67.19
2023-02-03T08:11:09.296Z,67.07
2023-02-03T08:12:11.921Z,66.76
2023-02-03T08:13:14.836Z,66.99
2023-02-03T08:14:17.580Z,67.31
2023-02-03T08:15:20.300Z,67.27
2023-02-03T08:16:23.019Z,67.29
2023-02-03T08:17:26.157Z,67.65
2023-02-03T08:18:30.982Z,67.18
2023-02-03T08:19:35.307Z,67.16
2023-02-03T08:20:37.995Z,67.04
2023-02-03T08:21:40.648Z,67.39
2023-02-03T08:22:43.509Z,67.21
2023-02-03T08:23:46.158Z,67.05
2023-02-03T08:24:49.317Z,66.77
2023-02-03T08:25:54.963Z,66.44
2023-02-03T08:26:57.649Z,66.35
2023-02-03T08:28:00.393Z,66.42
2023-02-03T08:29:03.245Z,66.43
2023-02-03T08:30:06.746Z,66.14
2023-02-03T08:31:13.730Z,66.53
2023-02-03T08:32:22.984Z,66.46
2023-02-03T08:33:25.677Z,66.60
2023-02-03T08:34:28.338Z,66.61
2023-02-03T08:35:31.030Z,66.81
2023-02-03T08:36:33.687Z,67.13
2023-02-03T08:37:36.489Z,67.44
2023-02-03T08:38:40.234Z,67.60
2023-02-03T08:39:43.007Z,67.79
2023-02-03T08:40:45.695Z,68.48
2023-02-03T08:41:48.495Z,69.19
2023-02-03T08:42:51.135Z,69.94
2023-02-03T08:43:55.240Z,70.29
2023-02-03T08:44:58.132Z,70.59
2023-02-03T08:46:04.887Z,71.21
2023-02-03T08:47:08.197Z,71.65
2023-02-03T08:48:10.836Z,72.02
2023-02-03T08:49:13.452Z,72.43
2023-02-03T08:50:16.193Z,72.43
2023-02-03T08:51:18.912Z,72.64
2023-02-03T08:52:21.765Z,73.00
2023-02-03T08:53:24.410Z,73.07
2023-02-03T08:54:27.453Z,73.05
2023-02-03T08:55:30.442Z,73.54
2023-02-03T08:56:35.157Z,74.01
2023-02-03T08:57:38.511Z,74.42
2023-02-03T08:58:41.356Z,74.58
2023-02-03T08:59:44.815Z,74.77
2023-02-03T09:00:50.147Z,74.77
2023-02-03T09:01:53.850Z,74.64
2023-02-03T09:02:56.763Z,74.86
2023-02-03T09:03:59.562Z,74.90
2023-02-03T09:05:02.488Z,74.89
2023-02-03T09:06:06.255Z,74.77
2023-02-03T09:07:09.042Z,74.74
2023-02-03T09:08:11.676Z,74.62
2023-02-03T09:09:14.856Z,74.64
2023-02-03T09:10:17.619Z,74.61
2023-02-03T09:11:20.300Z,74.60
2023-02-03T09:12:22.975Z,74.60
2023-02-03T09:13:25.783Z,74.52
2023-02-03T09:14:31.454Z,74.69
2023-02-03T09:15:34.147Z,74.73
2023-02-03T09:16:37.224Z,74.97
2023-02-03T09:17:40.530Z,74.95
2023-02-03T09:18:43.243Z,74.93
2023-02-03T09:19:45.985Z,75.20
2023-02-03T09:20:48.919Z,75.27
2023-02-03T09:21:52.088Z,75.26
2023-02-03T09:22:56.045Z,75.14
2023-02-03T09:24:02.814Z,75.21
2023-02-03T09:25:07.277Z,75.29
2023-02-03T09:26:12.794Z,75.38
2023-02-03T09:27:16.002Z,75.54
2023-02-03T09:28:18.688Z,75.53
2023-02-03T09:29:21.532Z,75.54
2023-02-03T09:30:24.319Z,75.51
2023-02-03T09:31:27.114Z,75.61
2023-02-03T09:32:29.818Z,75.42
2023-02-03T09:33:32.809Z,75.51
2023-02-03T09:34:35.482Z,75.47
2023-02-03T09:35:38.245Z,75.43
2023-02-03T09:36:42.947Z,75.43
2023-02-03T09:37:45.712Z,75.51
2023-02-03T09:38:48.431Z,75.72
2023-02-03T09:39:51.144Z,75.83
2023-02-03T09:41:10.610Z,75.93
2023-02-03T09:42:55.645Z,75.88
2023-02-03T09:44:11.234Z,75.79
2023-02-03T09:45:28.120Z,76.15
2023-02-03T09:46:44.865Z,76.07
2023-02-03T09:47:54.973Z,76.05
2023-02-03T09:49:19.734Z,76.07
2023-02-03T09:50:27.633Z,76.02
2023-02-03T09:51:37.239Z,76.05
2023-02-03T09:52:42.867Z,76.03
2023-02-03T09:53:51.551Z,76.11
2023-02-03T09:55:03.837Z,76.19
2023-02-03T09:56:06.520Z,76.08
2023-02-03T09:57:17.163Z,76.06
2023-02-03T09:58:24.251Z,76.07
2023-02-03T09:59:32.824Z,76.07
2023-02-03T10:00:44.033Z,76.09
2023-02-03T10:02:10.756Z,76.15
2023-02-03T10:03:26.403Z,76.19
2023-02-03T10:04:39.035Z,76.17
2023-02-03T10:05:54.880Z,76.09
2023-02-03T10:07:07.605Z,76.07
2023-02-03T10:08:44.549Z,76.00
2023-02-03T10:09:59.123Z,76.03
2023-02-03T10:11:13.311Z,76.00
2023-02-03T10:12:48.280Z,76.07
2023-02-03T10:14:24.986Z,76.11
2023-02-03T10:15:45.464Z,76.16
2023-02-03T10:17:15.888Z,76.07
2023-02-03T10:18:24.423Z,76.13
2023-02-03T10:19:37.837Z,76.17
2023-02-03T10:20:45.824Z,76.22
2023-02-03T10:21:53.690Z,76.24
2023-02-03T10:23:01.711Z,76.17
2023-02-03T10:24:10.309Z,76.08
2023-02-03T10:25:15.913Z,76.09
2023-02-03T10:26:23.961Z,75.93
2023-02-03T10:27:28.596Z,75.97
2023-02-03T10:28:41.271Z,76.01
2023-02-03T10:29:44.793Z,76.05
2023-02-03T10:30:53.413Z,76.13
2023-02-03T10:31:58.953Z,76.19
2023-02-03T10:33:11.689Z,76.20
2023-02-03T10:34:18.765Z,76.25
2023-02-03T10:35:28.274Z,76.39
2023-02-03T10:36:44.342Z,76.24
2023-02-03T10:37:52.331Z,76.15
2023-02-03T10:39:19.676Z,76.07
2023-02-03T10:40:27.230Z,76.02
2023-02-03T10:41:34.229Z,76.00
2023-02-03T10:42:55.822Z,76.09
2023-02-03T10:43:59.835Z,76.28
2023-02-03T10:45:02.699Z,76.55
2023-02-03T10:46:05.542Z,76.60
2023-02-03T10:47:43.016Z,76.58
2023-02-03T10:48:45.722Z,76.67
2023-02-03T10:49:52.081Z,76.66
2023-02-03T10:50:55.970Z,76.64
2023-02-03T10:52:04.459Z,76.65
2023-02-03T10:53:25.884Z,76.68
2023-02-03T10:54:37.909Z,76.81
2023-02-03T10:55:40.616Z,76.87
2023-02-03T10:56:43.317Z,77.00
2023-02-03T10:57:46.022Z,77.09
2023-02-03T10:58:54.800Z,77.09
2023-02-03T11:00:22.600Z,77.26
2023-02-03T11:01:40.460Z,77.30
2023-02-03T11:02:43.345Z,77.36
2023-02-03T11:04:05.114Z,77.58
2023-02-03T11:05:17.541Z,77.62
2023-02-03T11:06:20.277Z,77.64
2023-02-03T11:07:28.303Z,77.75
2023-02-03T11:08:32.640Z,77.86
2023-02-03T11:09:38.731Z,77.92
2023-02-03T11:10:41.913Z,78.05
2023-02-03T11:11:44.575Z,78.08
2023-02-03T11:12:47.202Z,78.34
2023-02-03T11:13:54.581Z,78.37
2023-02-03T11:14:57.558Z,78.75
2023-02-03T11:16:08.073Z,78.79
2023-02-03T11:17:28.067Z,78.88
2023-02-03T11:18:43.419Z,78.84
2023-02-03T11:19:51.328Z,78.77
2023-02-03T11:20:54.370Z,78.60
2023-02-03T11:21:57.984Z,78.57
2023-02-03T11:23:01.370Z,78.50
2023-02-03T11:24:30.699Z,78.59
2023-02-03T11:25:34.458Z,78.58
2023-02-03T11:26:46.320Z,78.62
2023-02-03T11:27:49.160Z,78.56
2023-02-03T11:28:54.261Z,78.53
2023-02-03T11:30:15.223Z,78.50
2023-02-03T11:31:29.588Z,78.58
2023-02-03T11:32:32.407Z,78.68
2023-02-03T11:33:35.113Z,78.79
2023-02-03T11:34:39.551Z,78.82
2023-02-03T11:35:58.930Z,79.18
2023-02-03T11:37:28.322Z,79.51
2023-02-03T11:38:35.843Z,79.37
2023-02-03T11:39:38.531Z,79.37
2023-02-03T11:40:42.478Z,79.32
2023-02-03T11:41:45.856Z,79.41
2023-02-03T11:42:51.458Z,79.36
2023-02-03T11:43:57.139Z,79.36
2023-02-03T11:45:49.997Z,79.32
2023-02-03T11:46:59.569Z,79.09
2023-02-03T11:48:07.898Z,78.97
2023-02-03T11:49:19.335Z,78.75
2023-02-03T11:50:53.930Z,78.65
2023-02-03T11:52:04.631Z,78.41
2023-02-03T11:53:15.950Z,78.46
2023-02-03T11:54:52.233Z,78.54
2023-02-03T11:55:54.819Z,78.19
2023-02-03T11:57:07.564Z,78.14
2023-02-03T11:58:45.810Z,78.29
2023-02-03T12:00:11.847Z,78.36
2023-02-03T12:01:45.913Z,78.35
2023-02-03T12:03:00.831Z,78.40
2023-02-03T12:04:18.634Z,78.70
2023-02-03T12:05:42.695Z,78.95
2023-02-03T12:06:48.609Z,78.98
2023-02-03T12:08:19.676Z,78.95
2023-02-03T12:09:52.559Z,78.77
2023-02-03T12:11:18.635Z,79.13
2023-02-03T12:12:33.585Z,79.26
2023-02-03T12:14:05.901Z,79.07
2023-02-03T12:15:35.865Z,78.97
2023-02-03T12:17:05.320Z,79.05
2023-02-03T12:18:30.815Z,78.99
2023-02-03T12:19:33.406Z,78.94
2023-02-03T12:20:49.939Z,78.83
2023-02-03T12:22:05.373Z,78.82
2023-02-03T12:23:15.019Z,78.70
2023-02-03T12:24:36.831Z,78.87
2023-02-03T12:26:10.330Z,79.40
2023-02-03T12:27:50.929Z,79.42
2023-02-03T12:28:56.156Z,79.42
2023-02-03T12:30:14.854Z,79.40
2023-02-03T12:31:39.254Z,79.55
2023-02-03T12:33:06.139Z,79.64
2023-02-03T12:34:36.983Z,79.64
2023-02-03T12:35:49.986Z,79.91
2023-02-03T12:36:59.546Z,80.11
2023-02-03T12:38:37.280Z,80.07
2023-02-03T12:39:52.562Z,80.15
2023-02-03T12:41:05.616Z,80.07
2023-02-03T12:42:40.696Z,80.17
2023-02-03T12:43:50.450Z,80.11
2023-02-03T12:44:55.236Z,80.21
2023-02-03T12:46:07.232Z,80.41
2023-02-03T12:47:21.075Z,80.63
2023-02-03T12:48:30.486Z,80.81
2023-02-03T12:50:01.927Z,80.85
2023-02-03T12:51:11.691Z,80.78
2023-02-03T12:52:17.436Z,80.73
2023-02-03T12:53:31.454Z,80.61
2023-02-03T12:54:43.656Z,80.42
2023-02-03T12:55:56.307Z,80.30
2023-02-03T12:57:09.944Z,80.18
2023-02-03T12:58:19.348Z,80.21
2023-02-03T12:59:26.562Z,80.17
2023-02-03T13:00:53.232Z,80.21
2023-02-03T13:02:01.435Z,80.20
2023-02-03T13:03:42.471Z,80.41
2023-02-03T13:04:53.863Z,80.50
2023-02-03T13:06:12.506Z,80.58
2023-02-03T13:07:23.816Z,80.74
2023-02-03T13:08:52.026Z,81.10
2023-02-03T13:10:15.747Z,81.23
2023-02-03T13:11:36.127Z,81.27
2023-02-03T13:12:45.237Z,81.29
2023-02-03T13:13:58.122Z,81.29
2023-02-03T13:15:34.433Z,81.29
2023-02-03T13:16:42.015Z,81.41
2023-02-03T13:17:51.695Z,81.36
2023-02-03T13:18:59.730Z,81.64
2023-02-03T13:20:24.276Z,81.70
2023-02-03T13:21:27.130Z,81.69
2023-02-03T13:22:29.934Z,81.70
2023-02-03T13:23:33.553Z,81.86
2023-02-03T13:24:36.688Z,82.02
2023-02-03T13:25:45.194Z,82.06
2023-02-03T13:27:10.835Z,81.99
2023-02-03T13:28:42.699Z,82.15
2023-02-03T13:30:22.932Z,82.25
2023-02-03T13:32:00.521Z,82.40
2023-02-03T13:33:15.226Z,82.52
2023-02-03T13:34:48.506Z,82.57
2023-02-03T13:36:27.155Z,82.43
2023-02-03T13:37:35.855Z,82.58
2023-02-03T13:39:06.248Z,82.66
2023-02-03T13:40:36.518Z,82.78
2023-02-03T13:42:09.653Z,83.00
2023-02-03T13:43:36.015Z,83.37
2023-02-03T13:44:44.343Z,83.29
2023-02-03T13:45:52.099Z,83.23
2023-02-03T13:46:56.100Z,83.10
2023-02-03T13:48:23.157Z,82.87
2023-02-03T13:49:29.971Z,82.62
2023-02-03T13:50:32.892Z,82.51
2023-02-03T13:51:47.175Z,82.40
2023-02-03T13:52:57.436Z,82.22
2023-02-03T13:54:04.441Z,81.96
2023-02-03T13:55:08.119Z,81.87
2023-02-03T13:56:19.238Z,81.68
2023-02-03T13:57:35.534Z,81.64
2023-02-03T13:58:41.391Z,81.75
2023-02-03T13:59:46.095Z,81.76
2023-02-03T14:00:48.737Z,81.70
2023-02-03T14:01:51.402Z,81.68
2023-02-03T14:02:56.027Z,81.52
2023-02-03T14:03:59.604Z,81.78
2023-02-03T14:05:03.073Z,82.00
2023-02-03T14:06:11.498Z,82.09
2023-02-03T14:07:36.627Z,82.05
2023-02-03T14:08:39.254Z,82.08
2023-02-03T14:09:42.700Z,82.16
2023-02-03T14:10:45.355Z,82.11
2023-02-03T14:11:51.383Z,82.05
2023-02-03T14:12:54.001Z,81.94
2023-02-03T14:14:16.596Z,81.93
2023-02-03T14:15:32.830Z,81.88
2023-02-03T14:16:38.187Z,81.99
2023-02-03T14:17:43.614Z,82.00
2023-02-03T14:18:47.434Z,81.97
2023-02-03T14:19:53.055Z,81.92
2023-02-03T14:21:09.452Z,81.94
2023-02-03T14:22:18.475Z,82.02
2023-02-03T14:23:31.751Z,82.02
2023-02-03T14:24:38.658Z,81.88
2023-02-03T14:25:51.231Z,81.77
2023-02-03T14:26:56.865Z,81.65
2023-02-03T14:28:02.082Z,81.56
2023-02-03T14:29:05.762Z,81.41
2023-02-03T14:30:15.134Z,81.30
2023-02-03T14:31:21.855Z,81.21
2023-02-03T14:32:24.659Z,81.11
2023-02-03T14:33:51.314Z,80.98
2023-02-03T14:34:54.068Z,80.93
2023-02-03T14:35:56.850Z,81.26
2023-02-03T14:37:24.609Z,81.25
2023-02-03T14:38:33.242Z,81.21